sensor_id;sensor_type;location;lat;lon;timestamp;P1;durP1;ratioP1;P2;durP2;ratioP2
60225;SDS011;46090;48.436;11.410;2023-08-31T00:00:10;5.70;;;2.90;;
60225;SDS011;46090;48.436;11.410;2023-08-31T00:02:38;4.47;;;2.72;;
60225;SDS011;46090;48.436;11.410;2023-08-31T00:05:07;4.45;;;2.45;;
60225;SDS011;46090;48.436;11.410;2023-08-31T00:07:34;9.00;;;3.05;;
60225;SDS011;46090;48.436;11.410;2023-08-31T00:10:01;5.53;;;3.10;;
60225;SDS011;46090;48.436;11.410;2023-08-31T00:12:35;6.82;;;2.90;;
60225;SDS011;46090;48.436;11.410;2023-08-31T00:15:03;5.43;;;2.97;;
60225;SDS011;46090;48.436;11.410;2023-08-31T00:17:35;5.25;;;3.15;;
60225;SDS011;46090;48.436;11.410;2023-08-31T00:20:02;6.97;;;3.25;;
60225;SDS011;46090;48.436;11.410;2023-08-31T00:22:32;6.50;;;3.30;;
60225;SDS011;46090;48.436;11.410;2023-08-31T00:24:59;5.40;;;2.92;;
60225;SDS011;46090;48.436;11.410;2023-08-31T00:27:25;5.63;;;2.97;;
60225;SDS011;46090;48.436;11.410;2023-08-31T00:29:52;6.70;;;2.75;;
60225;SDS011;46090;48.436;11.410;2023-08-31T00:32:19;5.38;;;2.80;;
60225;SDS011;46090;48.436;11.410;2023-08-31T00:34:49;5.43;;;3.03;;
60225;SDS011;46090;48.436;11.410;2023-08-31T00:37:16;8.85;;;2.70;;
60225;SDS011;46090;48.436;11.410;2023-08-31T00:39:43;5.38;;;2.70;;
60225;SDS011;46090;48.436;11.410;2023-08-31T00:42:10;6.80;;;3.00;;
60225;SDS011;46090;48.436;11.410;2023-08-31T00:44:36;6.40;;;2.70;;
60225;SDS011;46090;48.436;11.410;2023-08-31T00:47:03;5.40;;;2.85;;
60225;SDS011;46090;48.436;11.410;2023-08-31T00:49:30;6.65;;;2.63;;
60225;SDS011;46090;48.436;11.410;2023-08-31T00:51:57;4.88;;;2.35;;
60225;SDS011;46090;48.436;11.410;2023-08-31T00:54:23;6.30;;;2.80;;
60225;SDS011;46090;48.436;11.410;2023-08-31T00:56:53;5.10;;;2.55;;
60225;SDS011;46090;48.436;11.410;2023-08-31T00:59:20;9.35;;;3.00;;
60225;SDS011;46090;48.436;11.410;2023-08-31T01:01:57;5.82;;;2.90;;
60225;SDS011;46090;48.436;11.410;2023-08-31T01:04:33;6.72;;;2.95;;
60225;SDS011;46090;48.436;11.410;2023-08-31T01:07:41;5.65;;;2.75;;
60225;SDS011;46090;48.436;11.410;2023-08-31T01:10:18;7.40;;;2.95;;
60225;SDS011;46090;48.436;11.410;2023-08-31T01:12:54;6.25;;;3.05;;
60225;SDS011;46090;48.436;11.410;2023-08-31T01:15:30;4.88;;;2.80;;
60225;SDS011;46090;48.436;11.410;2023-08-31T01:17:58;6.82;;;2.80;;
60225;SDS011;46090;48.436;11.410;2023-08-31T01:20:29;5.18;;;2.80;;
60225;SDS011;46090;48.436;11.410;2023-08-31T01:23:07;5.50;;;2.95;;
60225;SDS011;46090;48.436;11.410;2023-08-31T01:25:37;5.95;;;3.25;;
60225;SDS011;46090;48.436;11.410;2023-08-31T01:28:04;5.32;;;2.90;;
60225;SDS011;46090;48.436;11.410;2023-08-31T01:30:32;5.28;;;3.05;;
60225;SDS011;46090;48.436;11.410;2023-08-31T01:32:58;6.32;;;3.17;;
60225;SDS011;46090;48.436;11.410;2023-08-31T01:35:25;6.00;;;3.40;;
60225;SDS011;46090;48.436;11.410;2023-08-31T01:37:57;5.68;;;3.00;;
60225;SDS011;46090;48.436;11.410;2023-08-31T01:43:23;5.00;;;2.63;;
60225;SDS011;46090;48.436;11.410;2023-08-31T01:45:50;5.68;;;3.17;;
60225;SDS011;46090;48.436;11.410;2023-08-31T01:48:17;4.85;;;3.28;;
60225;SDS011;46090;48.436;11.410;2023-08-31T01:50:44;6.60;;;3.28;;
60225;SDS011;46090;48.436;11.410;2023-08-31T01:53:12;7.25;;;3.17;;
60225;SDS011;46090;48.436;11.410;2023-08-31T01:55:40;5.88;;;3.08;;
60225;SDS011;46090;48.436;11.410;2023-08-31T01:58:07;6.65;;;3.42;;
60225;SDS011;46090;48.436;11.410;2023-08-31T02:00:35;5.28;;;3.03;;
60225;SDS011;46090;48.436;11.410;2023-08-31T02:03:04;6.40;;;3.47;;
60225;SDS011;46090;48.436;11.410;2023-08-31T02:05:33;6.95;;;3.25;;
60225;SDS011;46090;48.436;11.410;2023-08-31T02:07:59;7.63;;;3.85;;
60225;SDS011;46090;48.436;11.410;2023-08-31T02:10:26;5.43;;;3.30;;
60225;SDS011;46090;48.436;11.410;2023-08-31T02:12:53;7.07;;;3.13;;
60225;SDS011;46090;48.436;11.410;2023-08-31T02:15:20;5.43;;;3.17;;
60225;SDS011;46090;48.436;11.410;2023-08-31T02:17:47;5.28;;;3.33;;
60225;SDS011;46090;48.436;11.410;2023-08-31T02:20:14;5.50;;;3.22;;
60225;SDS011;46090;48.436;11.410;2023-08-31T02:22:41;6.35;;;3.05;;
60225;SDS011;46090;48.436;11.410;2023-08-31T02:25:08;5.13;;;2.83;;
60225;SDS011;46090;48.436;11.410;2023-08-31T02:27:34;6.40;;;3.35;;
60225;SDS011;46090;48.436;11.410;2023-08-31T02:30:01;6.53;;;3.50;;
60225;SDS011;46090;48.436;11.410;2023-08-31T02:32:32;5.80;;;2.90;;
60225;SDS011;46090;48.436;11.410;2023-08-31T02:34:59;5.20;;;2.97;;
60225;SDS011;46090;48.436;11.410;2023-08-31T02:37:26;5.22;;;2.60;;
60225;SDS011;46090;48.436;11.410;2023-08-31T02:39:52;5.22;;;2.75;;
60225;SDS011;46090;48.436;11.410;2023-08-31T02:42:19;6.63;;;3.47;;
60225;SDS011;46090;48.436;11.410;2023-08-31T02:44:46;5.65;;;3.35;;
60225;SDS011;46090;48.436;11.410;2023-08-31T02:47:13;5.85;;;3.20;;
60225;SDS011;46090;48.436;11.410;2023-08-31T02:49:40;6.00;;;3.08;;
60225;SDS011;46090;48.436;11.410;2023-08-31T02:52:06;6.30;;;3.00;;
60225;SDS011;46090;48.436;11.410;2023-08-31T02:54:33;6.15;;;2.95;;
60225;SDS011;46090;48.436;11.410;2023-08-31T02:57:00;5.15;;;2.85;;
60225;SDS011;46090;48.436;11.410;2023-08-31T02:59:28;5.28;;;2.83;;
60225;SDS011;46090;48.436;11.410;2023-08-31T03:01:55;5.88;;;2.65;;
60225;SDS011;46090;48.436;11.410;2023-08-31T03:04:21;5.70;;;2.88;;
60225;SDS011;46090;48.436;11.410;2023-08-31T03:06:48;4.82;;;2.20;;
60225;SDS011;46090;48.436;11.410;2023-08-31T03:09:15;6.13;;;2.22;;
60225;SDS011;46090;48.436;11.410;2023-08-31T03:11:42;3.78;;;1.65;;
60225;SDS011;46090;48.436;11.410;2023-08-31T03:14:09;5.32;;;2.28;;
60225;SDS011;46090;48.436;11.410;2023-08-31T03:16:36;4.55;;;1.95;;
60225;SDS011;46090;48.436;11.410;2023-08-31T03:19:03;3.90;;;1.92;;
60225;SDS011;46090;48.436;11.410;2023-08-31T03:21:30;5.05;;;1.85;;
60225;SDS011;46090;48.436;11.410;2023-08-31T03:23:57;3.75;;;1.63;;
60225;SDS011;46090;48.436;11.410;2023-08-31T03:26:23;4.88;;;2.10;;
60225;SDS011;46090;48.436;11.410;2023-08-31T03:28:50;5.05;;;1.65;;
60225;SDS011;46090;48.436;11.410;2023-08-31T03:31:17;4.22;;;1.42;;
60225;SDS011;46090;48.436;11.410;2023-08-31T03:33:44;4.72;;;1.50;;
60225;SDS011;46090;48.436;11.410;2023-08-31T03:36:10;6.20;;;1.30;;
60225;SDS011;46090;48.436;11.410;2023-08-31T03:38:37;3.97;;;1.42;;
60225;SDS011;46090;48.436;11.410;2023-08-31T03:41:05;3.58;;;1.20;;
60225;SDS011;46090;48.436;11.410;2023-08-31T03:43:31;7.18;;;1.63;;
60225;SDS011;46090;48.436;11.410;2023-08-31T03:45:58;3.78;;;1.30;;
60225;SDS011;46090;48.436;11.410;2023-08-31T03:48:25;3.10;;;1.17;;
60225;SDS011;46090;48.436;11.410;2023-08-31T03:50:52;3.30;;;1.13;;
60225;SDS011;46090;48.436;11.410;2023-08-31T03:53:21;4.20;;;1.33;;
60225;SDS011;46090;48.436;11.410;2023-08-31T03:55:50;2.55;;;1.00;;
60225;SDS011;46090;48.436;11.410;2023-08-31T03:58:18;4.00;;;1.50;;
60225;SDS011;46090;48.436;11.410;2023-08-31T04:00:50;4.10;;;1.52;;
60225;SDS011;46090;48.436;11.410;2023-08-31T04:03:18;5.15;;;1.55;;
60225;SDS011;46090;48.436;11.410;2023-08-31T04:05:46;3.53;;;1.50;;
60225;SDS011;46090;48.436;11.410;2023-08-31T04:08:12;5.00;;;1.95;;
60225;SDS011;46090;48.436;11.410;2023-08-31T04:10:39;4.90;;;1.70;;
60225;SDS011;46090;48.436;11.410;2023-08-31T04:13:06;10.93;;;1.80;;
60225;SDS011;46090;48.436;11.410;2023-08-31T04:15:32;5.18;;;1.77;;
60225;SDS011;46090;48.436;11.410;2023-08-31T04:18:00;5.32;;;2.10;;
60225;SDS011;46090;48.436;11.410;2023-08-31T04:20:27;4.68;;;2.20;;
60225;SDS011;46090;48.436;11.410;2023-08-31T04:22:54;5.60;;;2.20;;
60225;SDS011;46090;48.436;11.410;2023-08-31T04:25:21;5.18;;;2.55;;
60225;SDS011;46090;48.436;11.410;2023-08-31T04:27:48;4.53;;;2.20;;
60225;SDS011;46090;48.436;11.410;2023-08-31T04:30:15;8.63;;;2.90;;
60225;SDS011;46090;48.436;11.410;2023-08-31T04:32:43;5.60;;;2.40;;
60225;SDS011;46090;48.436;11.410;2023-08-31T04:35:10;6.95;;;2.90;;
60225;SDS011;46090;48.436;11.410;2023-08-31T04:37:37;6.22;;;3.00;;
60225;SDS011;46090;48.436;11.410;2023-08-31T04:40:04;7.00;;;3.28;;
60225;SDS011;46090;48.436;11.410;2023-08-31T04:42:31;6.20;;;3.08;;
60225;SDS011;46090;48.436;11.410;2023-08-31T04:44:58;7.93;;;3.50;;
60225;SDS011;46090;48.436;11.410;2023-08-31T04:47:25;8.10;;;3.92;;
60225;SDS011;46090;48.436;11.410;2023-08-31T04:49:51;6.97;;;3.90;;
60225;SDS011;46090;48.436;11.410;2023-08-31T04:52:18;6.78;;;3.88;;
60225;SDS011;46090;48.436;11.410;2023-08-31T04:54:44;9.65;;;4.28;;
60225;SDS011;46090;48.436;11.410;2023-08-31T04:57:11;6.65;;;3.65;;
60225;SDS011;46090;48.436;11.410;2023-08-31T04:59:38;7.10;;;4.05;;
60225;SDS011;46090;48.436;11.410;2023-08-31T05:02:05;6.57;;;3.90;;
60225;SDS011;46090;48.436;11.410;2023-08-31T05:04:31;9.43;;;4.55;;
60225;SDS011;46090;48.436;11.410;2023-08-31T05:06:58;6.13;;;3.72;;
60225;SDS011;46090;48.436;11.410;2023-08-31T05:12:22;7.20;;;3.97;;
60225;SDS011;46090;48.436;11.410;2023-08-31T05:14:48;6.20;;;3.53;;
60225;SDS011;46090;48.436;11.410;2023-08-31T05:17:15;10.15;;;4.05;;
60225;SDS011;46090;48.436;11.410;2023-08-31T05:19:42;10.48;;;4.13;;
60225;SDS011;46090;48.436;11.410;2023-08-31T05:22:08;8.48;;;3.60;;
60225;SDS011;46090;48.436;11.410;2023-08-31T05:24:37;6.55;;;3.78;;
60225;SDS011;46090;48.436;11.410;2023-08-31T05:27:03;6.22;;;3.20;;
60225;SDS011;46090;48.436;11.410;2023-08-31T05:29:30;7.07;;;3.45;;
60225;SDS011;46090;48.436;11.410;2023-08-31T05:31:57;6.38;;;3.67;;
60225;SDS011;46090;48.436;11.410;2023-08-31T05:34:24;6.15;;;3.25;;
60225;SDS011;46090;48.436;11.410;2023-08-31T05:36:51;6.47;;;3.58;;
60225;SDS011;46090;48.436;11.410;2023-08-31T05:39:18;6.43;;;3.55;;
60225;SDS011;46090;48.436;11.410;2023-08-31T05:41:45;5.95;;;3.15;;
60225;SDS011;46090;48.436;11.410;2023-08-31T05:44:11;5.80;;;3.38;;
60225;SDS011;46090;48.436;11.410;2023-08-31T05:46:38;5.70;;;2.92;;
60225;SDS011;46090;48.436;11.410;2023-08-31T05:49:07;7.35;;;3.42;;
60225;SDS011;46090;48.436;11.410;2023-08-31T05:51:34;7.30;;;3.17;;
60225;SDS011;46090;48.436;11.410;2023-08-31T05:54:01;6.30;;;2.78;;
60225;SDS011;46090;48.436;11.410;2023-08-31T05:56:31;6.38;;;2.40;;
60225;SDS011;46090;48.436;11.410;2023-08-31T05:58:58;9.07;;;2.90;;
60225;SDS011;46090;48.436;11.410;2023-08-31T06:01:24;5.93;;;3.03;;
60225;SDS011;46090;48.436;11.410;2023-08-31T06:03:51;8.45;;;2.90;;
60225;SDS011;46090;48.436;11.410;2023-08-31T06:06:18;5.28;;;2.63;;
60225;SDS011;46090;48.436;11.410;2023-08-31T06:08:45;4.53;;;2.25;;
60225;SDS011;46090;48.436;11.410;2023-08-31T06:11:12;6.30;;;2.50;;
60225;SDS011;46090;48.436;11.410;2023-08-31T06:13:40;5.43;;;2.58;;
60225;SDS011;46090;48.436;11.410;2023-08-31T06:16:07;5.50;;;2.42;;
60225;SDS011;46090;48.436;11.410;2023-08-31T06:18:34;5.47;;;2.60;;
60225;SDS011;46090;48.436;11.410;2023-08-31T06:21:00;4.88;;;2.38;;
60225;SDS011;46090;48.436;11.410;2023-08-31T06:23:27;5.35;;;2.67;;
60225;SDS011;46090;48.436;11.410;2023-08-31T06:25:54;4.35;;;2.08;;
60225;SDS011;46090;48.436;11.410;2023-08-31T06:28:20;3.55;;;1.60;;
60225;SDS011;46090;48.436;11.410;2023-08-31T06:30:47;4.22;;;2.17;;
60225;SDS011;46090;48.436;11.410;2023-08-31T06:33:14;6.05;;;2.03;;
60225;SDS011;46090;48.436;11.410;2023-08-31T06:35:42;4.22;;;1.80;;
60225;SDS011;46090;48.436;11.410;2023-08-31T06:38:08;5.90;;;1.77;;
60225;SDS011;46090;48.436;11.410;2023-08-31T06:40:35;6.05;;;2.03;;
60225;SDS011;46090;48.436;11.410;2023-08-31T06:43:01;5.53;;;2.40;;
60225;SDS011;46090;48.436;11.410;2023-08-31T06:45:29;4.25;;;1.88;;
60225;SDS011;46090;48.436;11.410;2023-08-31T06:47:56;4.60;;;1.73;;
60225;SDS011;46090;48.436;11.410;2023-08-31T06:50:23;5.35;;;2.08;;
60225;SDS011;46090;48.436;11.410;2023-08-31T06:52:49;4.32;;;1.90;;
60225;SDS011;46090;48.436;11.410;2023-08-31T06:55:16;6.45;;;1.92;;
60225;SDS011;46090;48.436;11.410;2023-08-31T06:57:43;4.82;;;1.63;;
60225;SDS011;46090;48.436;11.410;2023-08-31T07:00:10;4.25;;;1.73;;
60225;SDS011;46090;48.436;11.410;2023-08-31T07:02:39;7.60;;;1.90;;
60225;SDS011;46090;48.436;11.410;2023-08-31T07:05:07;4.38;;;1.75;;
60225;SDS011;46090;48.436;11.410;2023-08-31T07:07:35;6.47;;;1.88;;
60225;SDS011;46090;48.436;11.410;2023-08-31T07:10:01;4.70;;;1.83;;
60225;SDS011;46090;48.436;11.410;2023-08-31T07:12:28;6.47;;;1.98;;
60225;SDS011;46090;48.436;11.410;2023-08-31T07:14:55;7.28;;;2.70;;
60225;SDS011;46090;48.436;11.410;2023-08-31T07:17:22;4.25;;;1.70;;
60225;SDS011;46090;48.436;11.410;2023-08-31T07:19:48;5.85;;;2.15;;
60225;SDS011;46090;48.436;11.410;2023-08-31T07:22:15;4.13;;;1.50;;
60225;SDS011;46090;48.436;11.410;2023-08-31T07:24:42;4.43;;;1.55;;
60225;SDS011;46090;48.436;11.410;2023-08-31T07:27:08;4.10;;;1.70;;
60225;SDS011;46090;48.436;11.410;2023-08-31T07:29:35;4.15;;;1.70;;
60225;SDS011;46090;48.436;11.410;2023-08-31T07:32:02;3.17;;;1.30;;
60225;SDS011;46090;48.436;11.410;2023-08-31T07:34:29;4.30;;;1.33;;
60225;SDS011;46090;48.436;11.410;2023-08-31T07:36:58;3.58;;;1.38;;
60225;SDS011;46090;48.436;11.410;2023-08-31T07:39:25;3.88;;;1.20;;
60225;SDS011;46090;48.436;11.410;2023-08-31T07:41:54;4.47;;;1.73;;
60225;SDS011;46090;48.436;11.410;2023-08-31T07:44:21;6.18;;;1.65;;
60225;SDS011;46090;48.436;11.410;2023-08-31T07:46:47;4.70;;;1.70;;
60225;SDS011;46090;48.436;11.410;2023-08-31T07:49:14;3.45;;;1.38;;
60225;SDS011;46090;48.436;11.410;2023-08-31T07:51:41;5.05;;;1.60;;
60225;SDS011;46090;48.436;11.410;2023-08-31T07:54:07;5.60;;;1.65;;
60225;SDS011;46090;48.436;11.410;2023-08-31T07:56:34;7.30;;;4.10;;
60225;SDS011;46090;48.436;11.410;2023-08-31T07:59:01;4.72;;;1.70;;
60225;SDS011;46090;48.436;11.410;2023-08-31T08:01:29;3.88;;;1.25;;
60225;SDS011;46090;48.436;11.410;2023-08-31T08:03:56;4.35;;;1.45;;
60225;SDS011;46090;48.436;11.410;2023-08-31T08:06:22;4.38;;;1.50;;
60225;SDS011;46090;48.436;11.410;2023-08-31T08:08:49;4.68;;;1.45;;
60225;SDS011;46090;48.436;11.410;2023-08-31T08:11:16;4.97;;;1.23;;
60225;SDS011;46090;48.436;11.410;2023-08-31T08:13:42;3.72;;;1.25;;
60225;SDS011;46090;48.436;11.410;2023-08-31T08:16:09;4.88;;;1.30;;
60225;SDS011;46090;48.436;11.410;2023-08-31T08:18:36;2.78;;;1.00;;
60225;SDS011;46090;48.436;11.410;2023-08-31T08:21:02;4.45;;;1.42;;
60225;SDS011;46090;48.436;11.410;2023-08-31T08:23:29;2.67;;;1.00;;
60225;SDS011;46090;48.436;11.410;2023-08-31T08:25:56;5.75;;;1.30;;
60225;SDS011;46090;48.436;11.410;2023-08-31T08:28:26;3.67;;;1.00;;
60225;SDS011;46090;48.436;11.410;2023-08-31T08:30:53;5.18;;;1.20;;
60225;SDS011;46090;48.436;11.410;2023-08-31T08:33:20;2.67;;;1.05;;
60225;SDS011;46090;48.436;11.410;2023-08-31T08:35:46;3.80;;;1.05;;
60225;SDS011;46090;48.436;11.410;2023-08-31T08:38:13;6.38;;;1.30;;
60225;SDS011;46090;48.436;11.410;2023-08-31T08:40:40;4.88;;;1.13;;
60225;SDS011;46090;48.436;11.410;2023-08-31T08:43:06;5.28;;;1.20;;
60225;SDS011;46090;48.436;11.410;2023-08-31T08:45:38;3.88;;;1.70;;
60225;SDS011;46090;48.436;11.410;2023-08-31T08:48:08;5.28;;;1.10;;
60225;SDS011;46090;48.436;11.410;2023-08-31T08:50:36;4.38;;;1.30;;
60225;SDS011;46090;48.436;11.410;2023-08-31T08:53:03;5.88;;;1.10;;
60225;SDS011;46090;48.436;11.410;2023-08-31T08:55:32;6.55;;;1.35;;
60225;SDS011;46090;48.436;11.410;2023-08-31T08:57:59;4.93;;;1.00;;
60225;SDS011;46090;48.436;11.410;2023-08-31T09:00:26;5.65;;;1.05;;
60225;SDS011;46090;48.436;11.410;2023-08-31T09:02:54;3.55;;;1.13;;
60225;SDS011;46090;48.436;11.410;2023-08-31T09:05:22;5.53;;;1.42;;
60225;SDS011;46090;48.436;11.410;2023-08-31T09:08:03;3.70;;;1.13;;
60225;SDS011;46090;48.436;11.410;2023-08-31T09:10:40;3.63;;;1.00;;
60225;SDS011;46090;48.436;11.410;2023-08-31T09:13:08;4.03;;;1.13;;
60225;SDS011;46090;48.436;11.410;2023-08-31T09:15:46;4.70;;;1.20;;
60225;SDS011;46090;48.436;11.410;2023-08-31T09:18:24;4.97;;;1.10;;
60225;SDS011;46090;48.436;11.410;2023-08-31T09:20:51;3.92;;;1.00;;
60225;SDS011;46090;48.436;11.410;2023-08-31T09:23:18;3.92;;;0.93;;
60225;SDS011;46090;48.436;11.410;2023-08-31T09:25:46;3.70;;;1.02;;
60225;SDS011;46090;48.436;11.410;2023-08-31T09:28:16;4.63;;;0.98;;
60225;SDS011;46090;48.436;11.410;2023-08-31T09:30:44;4.40;;;0.98;;
60225;SDS011;46090;48.436;11.410;2023-08-31T09:33:16;4.47;;;0.90;;
60225;SDS011;46090;48.436;11.410;2023-08-31T09:35:50;4.35;;;0.80;;
60225;SDS011;46090;48.436;11.410;2023-08-31T09:38:18;2.90;;;0.85;;
60225;SDS011;46090;48.436;11.410;2023-08-31T09:40:45;4.88;;;1.30;;
60225;SDS011;46090;48.436;11.410;2023-08-31T09:43:12;3.38;;;0.82;;
60225;SDS011;46090;48.436;11.410;2023-08-31T09:45:44;3.88;;;1.15;;
60225;SDS011;46090;48.436;11.410;2023-08-31T09:48:12;4.18;;;0.88;;
60225;SDS011;46090;48.436;11.410;2023-08-31T09:50:40;3.63;;;0.90;;
60225;SDS011;46090;48.436;11.410;2023-08-31T09:53:10;3.40;;;0.70;;
60225;SDS011;46090;48.436;11.410;2023-08-31T09:55:41;2.35;;;0.60;;
60225;SDS011;46090;48.436;11.410;2023-08-31T09:58:08;4.22;;;1.08;;
60225;SDS011;46090;48.436;11.410;2023-08-31T10:00:42;3.47;;;0.83;;
60225;SDS011;46090;48.436;11.410;2023-08-31T10:03:10;3.05;;;0.80;;
60225;SDS011;46090;48.436;11.410;2023-08-31T10:05:45;3.70;;;0.80;;
60225;SDS011;46090;48.436;11.410;2023-08-31T10:08:12;3.65;;;0.80;;
60225;SDS011;46090;48.436;11.410;2023-08-31T10:10:40;5.22;;;0.82;;
60225;SDS011;46090;48.436;11.410;2023-08-31T10:13:07;2.88;;;0.77;;
60225;SDS011;46090;48.436;11.410;2023-08-31T10:15:35;4.10;;;0.88;;
60225;SDS011;46090;48.436;11.410;2023-08-31T10:18:03;4.85;;;0.98;;
60225;SDS011;46090;48.436;11.410;2023-08-31T10:20:31;3.15;;;0.60;;
60225;SDS011;46090;48.436;11.410;2023-08-31T10:22:58;5.80;;;0.80;;
60225;SDS011;46090;48.436;11.410;2023-08-31T10:25:25;4.28;;;0.75;;
60225;SDS011;46090;48.436;11.410;2023-08-31T10:31:05;4.40;;;0.60;;
60225;SDS011;46090;48.436;11.410;2023-08-31T10:38:42;3.53;;;0.57;;
60225;SDS011;46090;48.436;11.410;2023-08-31T10:51:40;4.18;;;0.80;;
60225;SDS011;46090;48.436;11.410;2023-08-31T10:59:17;3.08;;;0.65;;
60225;SDS011;46090;48.436;11.410;2023-08-31T11:04:22;3.10;;;0.50;;
60225;SDS011;46090;48.436;11.410;2023-08-31T11:07:11;4.72;;;0.65;;
60225;SDS011;46090;48.436;11.410;2023-08-31T11:09:43;3.15;;;0.82;;
60225;SDS011;46090;48.436;11.410;2023-08-31T11:12:12;3.85;;;0.60;;
60225;SDS011;46090;48.436;11.410;2023-08-31T11:14:39;3.03;;;0.65;;
60225;SDS011;46090;48.436;11.410;2023-08-31T11:17:06;4.22;;;0.73;;
60225;SDS011;46090;48.436;11.410;2023-08-31T11:19:34;2.33;;;0.70;;
60225;SDS011;46090;48.436;11.410;2023-08-31T11:22:01;2.80;;;0.70;;
60225;SDS011;46090;48.436;11.410;2023-08-31T11:24:30;5.38;;;0.85;;
60225;SDS011;46090;48.436;11.410;2023-08-31T11:26:57;5.35;;;0.80;;
60225;SDS011;46090;48.436;11.410;2023-08-31T11:29:24;7.30;;;0.95;;
60225;SDS011;46090;48.436;11.410;2023-08-31T11:31:50;3.25;;;0.60;;
60225;SDS011;46090;48.436;11.410;2023-08-31T11:34:17;3.53;;;0.88;;
60225;SDS011;46090;48.436;11.410;2023-08-31T11:36:45;5.25;;;0.85;;
60225;SDS011;46090;48.436;11.410;2023-08-31T11:39:13;3.20;;;0.85;;
60225;SDS011;46090;48.436;11.410;2023-08-31T11:41:40;3.70;;;0.80;;
60225;SDS011;46090;48.436;11.410;2023-08-31T11:44:12;3.03;;;0.63;;
60225;SDS011;46090;48.436;11.410;2023-08-31T11:46:39;3.38;;;0.90;;
60225;SDS011;46090;48.436;11.410;2023-08-31T11:49:08;5.45;;;0.80;;
60225;SDS011;46090;48.436;11.410;2023-08-31T11:51:35;6.25;;;0.90;;
60225;SDS011;46090;48.436;11.410;2023-08-31T11:54:03;6.30;;;0.98;;
60225;SDS011;46090;48.436;11.410;2023-08-31T11:56:40;2.88;;;0.73;;
60225;SDS011;46090;48.436;11.410;2023-08-31T11:59:09;3.72;;;0.75;;
60225;SDS011;46090;48.436;11.410;2023-08-31T12:01:48;5.47;;;0.80;;
60225;SDS011;46090;48.436;11.410;2023-08-31T12:04:22;2.90;;;0.80;;
60225;SDS011;46090;48.436;11.410;2023-08-31T12:07:01;3.22;;;0.80;;
60225;SDS011;46090;48.436;11.410;2023-08-31T12:09:31;4.72;;;0.80;;
60225;SDS011;46090;48.436;11.410;2023-08-31T12:11:58;7.03;;;1.45;;
60225;SDS011;46090;48.436;11.410;2023-08-31T12:14:29;3.20;;;0.80;;
60225;SDS011;46090;48.436;11.410;2023-08-31T12:17:02;3.85;;;1.00;;
60225;SDS011;46090;48.436;11.410;2023-08-31T12:19:31;4.00;;;0.95;;
60225;SDS011;46090;48.436;11.410;2023-08-31T12:21:59;2.03;;;0.73;;
60225;SDS011;46090;48.436;11.410;2023-08-31T12:24:25;3.20;;;0.70;;
60225;SDS011;46090;48.436;11.410;2023-08-31T12:26:52;4.25;;;1.08;;
60225;SDS011;46090;48.436;11.410;2023-08-31T12:29:20;4.03;;;0.93;;
60225;SDS011;46090;48.436;11.410;2023-08-31T12:31:48;3.83;;;0.88;;
60225;SDS011;46090;48.436;11.410;2023-08-31T12:34:15;2.65;;;0.52;;
60225;SDS011;46090;48.436;11.410;2023-08-31T12:36:42;2.45;;;0.70;;
60225;SDS011;46090;48.436;11.410;2023-08-31T12:39:09;4.93;;;0.88;;
60225;SDS011;46090;48.436;11.410;2023-08-31T12:41:37;3.20;;;0.90;;
60225;SDS011;46090;48.436;11.410;2023-08-31T12:44:06;3.50;;;0.90;;
60225;SDS011;46090;48.436;11.410;2023-08-31T12:46:33;4.30;;;0.70;;
60225;SDS011;46090;48.436;11.410;2023-08-31T12:49:00;3.80;;;0.90;;
60225;SDS011;46090;48.436;11.410;2023-08-31T12:51:29;6.53;;;0.93;;
60225;SDS011;46090;48.436;11.410;2023-08-31T12:53:56;4.85;;;0.95;;
60225;SDS011;46090;48.436;11.410;2023-08-31T12:56:23;6.60;;;0.90;;
60225;SDS011;46090;48.436;11.410;2023-08-31T12:58:52;3.15;;;0.80;;
60225;SDS011;46090;48.436;11.410;2023-08-31T13:01:19;3.97;;;0.90;;
60225;SDS011;46090;48.436;11.410;2023-08-31T13:03:47;5.07;;;0.90;;
60225;SDS011;46090;48.436;11.410;2023-08-31T13:06:14;4.15;;;0.80;;
60225;SDS011;46090;48.436;11.410;2023-08-31T13:08:42;3.05;;;0.77;;
60225;SDS011;46090;48.436;11.410;2023-08-31T13:11:12;4.63;;;0.85;;
60225;SDS011;46090;48.436;11.410;2023-08-31T13:13:39;3.35;;;0.90;;
60225;SDS011;46090;48.436;11.410;2023-08-31T13:16:05;4.05;;;1.17;;
60225;SDS011;46090;48.436;11.410;2023-08-31T13:18:32;3.13;;;0.70;;
60225;SDS011;46090;48.436;11.410;2023-08-31T13:20:59;5.38;;;0.90;;
60225;SDS011;46090;48.436;11.410;2023-08-31T13:23:26;2.67;;;0.60;;
60225;SDS011;46090;48.436;11.410;2023-08-31T13:25:53;4.78;;;0.95;;
60225;SDS011;46090;48.436;11.410;2023-08-31T13:28:20;3.78;;;0.80;;
60225;SDS011;46090;48.436;11.410;2023-08-31T13:30:55;4.88;;;0.73;;
60225;SDS011;46090;48.436;11.410;2023-08-31T13:33:23;3.40;;;0.63;;
60225;SDS011;46090;48.436;11.410;2023-08-31T13:35:50;3.78;;;0.70;;
60225;SDS011;46090;48.436;11.410;2023-08-31T13:38:17;3.80;;;1.00;;
60225;SDS011;46090;48.436;11.410;2023-08-31T13:40:43;4.60;;;0.73;;
60225;SDS011;46090;48.436;11.410;2023-08-31T13:43:10;4.63;;;0.90;;
60225;SDS011;46090;48.436;11.410;2023-08-31T13:45:37;4.15;;;0.90;;
60225;SDS011;46090;48.436;11.410;2023-08-31T13:48:03;3.50;;;1.00;;
60225;SDS011;46090;48.436;11.410;2023-08-31T13:50:34;2.83;;;0.80;;
60225;SDS011;46090;48.436;11.410;2023-08-31T13:53:01;4.30;;;0.65;;
60225;SDS011;46090;48.436;11.410;2023-08-31T13:55:28;3.30;;;0.80;;
60225;SDS011;46090;48.436;11.410;2023-08-31T13:57:54;6.75;;;0.90;;
60225;SDS011;46090;48.436;11.410;2023-08-31T14:00:21;4.35;;;0.80;;
60225;SDS011;46090;48.436;11.410;2023-08-31T14:02:48;2.67;;;0.60;;
60225;SDS011;46090;48.436;11.410;2023-08-31T14:05:15;4.75;;;0.93;;
60225;SDS011;46090;48.436;11.410;2023-08-31T14:07:42;2.58;;;0.68;;
60225;SDS011;46090;48.436;11.410;2023-08-31T14:10:08;3.97;;;0.70;;
60225;SDS011;46090;48.436;11.410;2023-08-31T14:12:35;4.55;;;0.70;;
60225;SDS011;46090;48.436;11.410;2023-08-31T14:15:02;3.40;;;0.70;;
60225;SDS011;46090;48.436;11.410;2023-08-31T14:17:30;4.50;;;0.70;;
60225;SDS011;46090;48.436;11.410;2023-08-31T14:19:58;4.05;;;0.90;;
60225;SDS011;46090;48.436;11.410;2023-08-31T14:22:26;2.85;;;0.63;;
60225;SDS011;46090;48.436;11.410;2023-08-31T14:24:53;2.90;;;0.75;;
60225;SDS011;46090;48.436;11.410;2023-08-31T14:27:20;4.50;;;0.80;;
60225;SDS011;46090;48.436;11.410;2023-08-31T14:29:47;4.88;;;0.57;;
60225;SDS011;46090;48.436;11.410;2023-08-31T14:32:13;5.82;;;0.80;;
60225;SDS011;46090;48.436;11.410;2023-08-31T14:34:40;4.95;;;0.63;;
60225;SDS011;46090;48.436;11.410;2023-08-31T14:37:07;2.40;;;0.52;;
60225;SDS011;46090;48.436;11.410;2023-08-31T14:39:34;3.97;;;0.98;;
60225;SDS011;46090;48.436;11.410;2023-08-31T14:42:00;4.35;;;0.90;;
60225;SDS011;46090;48.436;11.410;2023-08-31T14:44:27;2.88;;;0.70;;
60225;SDS011;46090;48.436;11.410;2023-08-31T14:46:54;4.72;;;1.02;;
60225;SDS011;46090;48.436;11.410;2023-08-31T14:49:24;3.05;;;0.85;;
60225;SDS011;46090;48.436;11.410;2023-08-31T14:51:51;3.78;;;1.10;;
60225;SDS011;46090;48.436;11.410;2023-08-31T14:54:18;3.13;;;0.93;;
60225;SDS011;46090;48.436;11.410;2023-08-31T14:56:45;3.80;;;0.82;;
60225;SDS011;46090;48.436;11.410;2023-08-31T14:59:11;3.33;;;1.05;;
60225;SDS011;46090;48.436;11.410;2023-08-31T15:01:38;4.70;;;1.08;;
60225;SDS011;46090;48.436;11.410;2023-08-31T15:04:05;4.18;;;0.70;;
60225;SDS011;46090;48.436;11.410;2023-08-31T15:06:31;4.53;;;0.68;;
60225;SDS011;46090;48.436;11.410;2023-08-31T15:08:59;3.10;;;0.65;;